sensor_id;sensor_type;location;lat;lon;timestamp;P1;durP1;ratioP1;P2;durP2;ratioP2
7179;SDS011;3631;42.152;24.756;2024-03-22T00:01:44;14.93;;;10.07;;
7179;SDS011;3631;42.152;24.756;2024-03-22T00:04:10;14.33;;;9.87;;
7179;SDS011;3631;42.152;24.756;2024-03-22T00:06:38;16.47;;;10.53;;
7179;SDS011;3631;42.152;24.756;2024-03-22T00:09:03;14.20;;;9.77;;
7179;SDS011;3631;42.152;24.756;2024-03-22T00:11:30;12.70;;;9.47;;
7179;SDS011;3631;42.152;24.756;2024-03-22T00:13:57;14.20;;;9.33;;
7179;SDS011;3631;42.152;24.756;2024-03-22T00:16:25;11.93;;;8.83;;
7179;SDS011;3631;42.152;24.756;2024-03-22T00:18:51;11.07;;;8.87;;
7179;SDS011;3631;42.152;24.756;2024-03-22T00:21:18;12.83;;;9.97;;
7179;SDS011;3631;42.152;24.756;2024-03-22T00:23:44;12.90;;;9.00;;
7179;SDS011;3631;42.152;24.756;2024-03-22T00:26:12;12.63;;;9.07;;
7179;SDS011;3631;42.152;24.756;2024-03-22T00:28:38;15.83;;;9.20;;
7179;SDS011;3631;42.152;24.756;2024-03-22T00:31:05;13.47;;;9.27;;
7179;SDS011;3631;42.152;24.756;2024-03-22T00:33:32;15.37;;;10.10;;
7179;SDS011;3631;42.152;24.756;2024-03-22T00:35:59;18.67;;;9.30;;
7179;SDS011;3631;42.152;24.756;2024-03-22T00:38:25;16.00;;;9.27;;
7179;SDS011;3631;42.152;24.756;2024-03-22T00:40:52;14.13;;;9.50;;
7179;SDS011;3631;42.152;24.756;2024-03-22T00:43:19;12.63;;;8.97;;
7179;SDS011;3631;42.152;24.756;2024-03-22T00:45:46;11.80;;;9.07;;
7179;SDS011;3631;42.152;24.756;2024-03-22T00:48:12;14.93;;;9.30;;
7179;SDS011;3631;42.152;24.756;2024-03-22T00:50:40;12.67;;;9.07;;
7179;SDS011;3631;42.152;24.756;2024-03-22T00:53:06;15.17;;;8.93;;
7179;SDS011;3631;42.152;24.756;2024-03-22T00:55:35;12.47;;;9.37;;
7179;SDS011;3631;42.152;24.756;2024-03-22T00:58:01;14.17;;;9.63;;
7179;SDS011;3631;42.152;24.756;2024-03-22T01:00:28;13.30;;;9.77;;
7179;SDS011;3631;42.152;24.756;2024-03-22T01:02:54;14.90;;;10.43;;
7179;SDS011;3631;42.152;24.756;2024-03-22T01:05:21;13.07;;;9.67;;
7179;SDS011;3631;42.152;24.756;2024-03-22T01:07:48;14.50;;;10.57;;
7179;SDS011;3631;42.152;24.756;2024-03-22T01:10:15;16.97;;;10.03;;
7179;SDS011;3631;42.152;24.756;2024-03-22T01:12:41;13.73;;;10.47;;
7179;SDS011;3631;42.152;24.756;2024-03-22T01:15:08;15.03;;;10.60;;
7179;SDS011;3631;42.152;24.756;2024-03-22T01:17:34;14.10;;;10.50;;
7179;SDS011;3631;42.152;24.756;2024-03-22T01:20:01;15.33;;;10.23;;
7179;SDS011;3631;42.152;24.756;2024-03-22T01:22:27;12.33;;;9.60;;
7179;SDS011;3631;42.152;24.756;2024-03-22T01:24:55;14.57;;;10.57;;
7179;SDS011;3631;42.152;24.756;2024-03-22T01:27:21;15.17;;;10.47;;
7179;SDS011;3631;42.152;24.756;2024-03-22T01:29:48;14.90;;;10.30;;
7179;SDS011;3631;42.152;24.756;2024-03-22T01:32:14;15.53;;;11.23;;
7179;SDS011;3631;42.152;24.756;2024-03-22T01:34:41;17.13;;;11.33;;
7179;SDS011;3631;42.152;24.756;2024-03-22T01:37:07;17.37;;;13.03;;
7179;SDS011;3631;42.152;24.756;2024-03-22T01:39:34;17.90;;;13.10;;
7179;SDS011;3631;42.152;24.756;2024-03-22T01:42:01;20.50;;;12.97;;
7179;SDS011;3631;42.152;24.756;2024-03-22T01:44:29;16.07;;;12.63;;
7179;SDS011;3631;42.152;24.756;2024-03-22T01:46:57;24.10;;;13.67;;
7179;SDS011;3631;42.152;24.756;2024-03-22T01:49:25;19.97;;;13.67;;
7179;SDS011;3631;42.152;24.756;2024-03-22T01:51:51;20.20;;;13.17;;
7179;SDS011;3631;42.152;24.756;2024-03-22T01:54:19;16.53;;;12.97;;
7179;SDS011;3631;42.152;24.756;2024-03-22T01:56:46;20.27;;;13.63;;
7179;SDS011;3631;42.152;24.756;2024-03-22T01:59:14;22.67;;;13.83;;
7179;SDS011;3631;42.152;24.756;2024-03-22T02:01:41;21.43;;;13.73;;
7179;SDS011;3631;42.152;24.756;2024-03-22T02:04:08;21.23;;;13.77;;
7179;SDS011;3631;42.152;24.756;2024-03-22T02:06:35;18.10;;;13.13;;
7179;SDS011;3631;42.152;24.756;2024-03-22T02:09:02;22.73;;;14.13;;
7179;SDS011;3631;42.152;24.756;2024-03-22T02:11:29;26.77;;;14.43;;
7179;SDS011;3631;42.152;24.756;2024-03-22T02:13:57;22.07;;;14.30;;
7179;SDS011;3631;42.152;24.756;2024-03-22T02:16:24;23.73;;;14.63;;
7179;SDS011;3631;42.152;24.756;2024-03-22T02:18:51;22.03;;;15.67;;
7179;SDS011;3631;42.152;24.756;2024-03-22T02:21:17;23.73;;;15.40;;
7179;SDS011;3631;42.152;24.756;2024-03-22T02:23:45;20.17;;;14.03;;
7179;SDS011;3631;42.152;24.756;2024-03-22T02:26:11;20.57;;;14.53;;
7179;SDS011;3631;42.152;24.756;2024-03-22T02:28:38;26.73;;;14.70;;
7179;SDS011;3631;42.152;24.756;2024-03-22T02:31:04;21.90;;;14.03;;
7179;SDS011;3631;42.152;24.756;2024-03-22T02:33:31;25.80;;;15.97;;
7179;SDS011;3631;42.152;24.756;2024-03-22T02:35:57;19.77;;;14.10;;
7179;SDS011;3631;42.152;24.756;2024-03-22T02:38:24;21.87;;;14.40;;
7179;SDS011;3631;42.152;24.756;2024-03-22T02:40:52;22.67;;;14.43;;
7179;SDS011;3631;42.152;24.756;2024-03-22T02:43:19;21.20;;;14.30;;
7179;SDS011;3631;42.152;24.756;2024-03-22T02:45:46;20.00;;;12.73;;
7179;SDS011;3631;42.152;24.756;2024-03-22T02:48:13;20.97;;;13.80;;
7179;SDS011;3631;42.152;24.756;2024-03-22T02:50:39;18.77;;;13.17;;
7179;SDS011;3631;42.152;24.756;2024-03-22T02:53:06;16.67;;;12.67;;
7179;SDS011;3631;42.152;24.756;2024-03-22T02:55:36;16.40;;;12.17;;
7179;SDS011;3631;42.152;24.756;2024-03-22T02:58:05;20.37;;;13.50;;
7179;SDS011;3631;42.152;24.756;2024-03-22T03:00:32;21.70;;;14.07;;
7179;SDS011;3631;42.152;24.756;2024-03-22T03:03:02;20.07;;;12.93;;
7179;SDS011;3631;42.152;24.756;2024-03-22T03:05:29;19.30;;;12.97;;
7179;SDS011;3631;42.152;24.756;2024-03-22T03:07:55;19.57;;;12.83;;
7179;SDS011;3631;42.152;24.756;2024-03-22T03:10:22;19.00;;;13.00;;
7179;SDS011;3631;42.152;24.756;2024-03-22T03:12:48;20.73;;;12.77;;
7179;SDS011;3631;42.152;24.756;2024-03-22T03:15:17;20.37;;;14.20;;
7179;SDS011;3631;42.152;24.756;2024-03-22T03:17:43;18.17;;;13.27;;
7179;SDS011;3631;42.152;24.756;2024-03-22T03:20:10;20.13;;;14.20;;
7179;SDS011;3631;42.152;24.756;2024-03-22T03:22:38;21.73;;;13.50;;
7179;SDS011;3631;42.152;24.756;2024-03-22T03:25:06;19.67;;;13.90;;
7179;SDS011;3631;42.152;24.756;2024-03-22T03:27:33;23.30;;;13.70;;
7179;SDS011;3631;42.152;24.756;2024-03-22T03:30:00;23.17;;;14.60;;
7179;SDS011;3631;42.152;24.756;2024-03-22T03:32:27;25.00;;;14.83;;
7179;SDS011;3631;42.152;24.756;2024-03-22T03:34:54;21.50;;;15.40;;
7179;SDS011;3631;42.152;24.756;2024-03-22T03:37:20;26.07;;;15.47;;
7179;SDS011;3631;42.152;24.756;2024-03-22T03:39:47;23.30;;;15.20;;
7179;SDS011;3631;42.152;24.756;2024-03-22T03:42:13;27.00;;;16.53;;
7179;SDS011;3631;42.152;24.756;2024-03-22T03:44:40;27.37;;;17.33;;
7179;SDS011;3631;42.152;24.756;2024-03-22T03:47:06;29.57;;;17.93;;
7179;SDS011;3631;42.152;24.756;2024-03-22T03:49:35;34.13;;;19.33;;
7179;SDS011;3631;42.152;24.756;2024-03-22T03:52:01;29.67;;;17.97;;
7179;SDS011;3631;42.152;24.756;2024-03-22T03:54:28;30.03;;;17.43;;
7179;SDS011;3631;42.152;24.756;2024-03-22T03:56:54;28.07;;;17.87;;
7179;SDS011;3631;42.152;24.756;2024-03-22T03:59:21;29.40;;;17.87;;
7179;SDS011;3631;42.152;24.756;2024-03-22T04:01:46;28.37;;;17.53;;
7179;SDS011;3631;42.152;24.756;2024-03-22T04:04:14;31.27;;;18.17;;
7179;SDS011;3631;42.152;24.756;2024-03-22T04:06:41;27.63;;;16.87;;
7179;SDS011;3631;42.152;24.756;2024-03-22T04:09:10;27.47;;;17.57;;
7179;SDS011;3631;42.152;24.756;2024-03-22T04:11:36;24.77;;;16.30;;
7179;SDS011;3631;42.152;24.756;2024-03-22T04:14:03;24.93;;;15.37;;
7179;SDS011;3631;42.152;24.756;2024-03-22T04:16:29;25.53;;;15.80;;
7179;SDS011;3631;42.152;24.756;2024-03-22T04:18:56;22.00;;;15.50;;
7179;SDS011;3631;42.152;24.756;2024-03-22T04:21:22;23.10;;;14.47;;
7179;SDS011;3631;42.152;24.756;2024-03-22T04:23:50;22.63;;;14.90;;
7179;SDS011;3631;42.152;24.756;2024-03-22T04:26:16;20.47;;;14.53;;
7179;SDS011;3631;42.152;24.756;2024-03-22T04:28:43;22.27;;;15.30;;
7179;SDS011;3631;42.152;24.756;2024-03-22T04:31:09;22.17;;;15.50;;
7179;SDS011;3631;42.152;24.756;2024-03-22T04:33:37;26.23;;;15.43;;
7179;SDS011;3631;42.152;24.756;2024-03-22T04:36:03;23.53;;;14.67;;
7179;SDS011;3631;42.152;24.756;2024-03-22T04:38:31;23.00;;;15.47;;
7179;SDS011;3631;42.152;24.756;2024-03-22T04:40:59;25.73;;;15.03;;
7179;SDS011;3631;42.152;24.756;2024-03-22T04:43:27;25.43;;;14.57;;
7179;SDS011;3631;42.152;24.756;2024-03-22T04:45:54;24.00;;;14.53;;
7179;SDS011;3631;42.152;24.756;2024-03-22T04:48:21;23.70;;;15.30;;
7179;SDS011;3631;42.152;24.756;2024-03-22T04:50:49;25.90;;;15.77;;
7179;SDS011;3631;42.152;24.756;2024-03-22T04:53:16;29.53;;;16.17;;
7179;SDS011;3631;42.152;24.756;2024-03-22T04:55:42;24.73;;;15.27;;
7179;SDS011;3631;42.152;24.756;2024-03-22T04:58:13;28.57;;;15.53;;
7179;SDS011;3631;42.152;24.756;2024-03-22T05:00:39;25.03;;;15.83;;
7179;SDS011;3631;42.152;24.756;2024-03-22T05:03:06;30.77;;;15.77;;
7179;SDS011;3631;42.152;24.756;2024-03-22T05:05:33;22.63;;;14.50;;
7179;SDS011;3631;42.152;24.756;2024-03-22T05:08:00;22.47;;;14.33;;
7179;SDS011;3631;42.152;24.756;2024-03-22T05:10:26;24.43;;;13.60;;
7179;SDS011;3631;42.152;24.756;2024-03-22T05:12:54;25.67;;;12.70;;
7179;SDS011;3631;42.152;24.756;2024-03-22T05:15:21;22.47;;;13.03;;
7179;SDS011;3631;42.152;24.756;2024-03-22T05:17:48;23.23;;;13.50;;
7179;SDS011;3631;42.152;24.756;2024-03-22T05:20:14;18.00;;;12.47;;
7179;SDS011;3631;42.152;24.756;2024-03-22T05:22:41;21.77;;;12.20;;
7179;SDS011;3631;42.152;24.756;2024-03-22T05:25:08;15.93;;;11.50;;
7179;SDS011;3631;42.152;24.756;2024-03-22T05:27:35;17.80;;;12.70;;
7179;SDS011;3631;42.152;24.756;2024-03-22T05:30:01;21.90;;;13.20;;
7179;SDS011;3631;42.152;24.756;2024-03-22T05:32:30;23.40;;;12.77;;
7179;SDS011;3631;42.152;24.756;2024-03-22T05:34:56;19.67;;;11.63;;
7179;SDS011;3631;42.152;24.756;2024-03-22T05:37:23;16.70;;;12.13;;
7179;SDS011;3631;42.152;24.756;2024-03-22T05:39:49;17.77;;;11.33;;
7179;SDS011;3631;42.152;24.756;2024-03-22T05:42:16;26.47;;;12.20;;
7179;SDS011;3631;42.152;24.756;2024-03-22T05:44:42;18.83;;;12.03;;
7179;SDS011;3631;42.152;24.756;2024-03-22T05:47:10;18.37;;;12.27;;
7179;SDS011;3631;42.152;24.756;2024-03-22T05:49:38;19.27;;;13.03;;
7179;SDS011;3631;42.152;24.756;2024-03-22T05:52:05;35.07;;;13.63;;
7179;SDS011;3631;42.152;24.756;2024-03-22T05:54:31;22.27;;;13.63;;
7179;SDS011;3631;42.152;24.756;2024-03-22T05:56:58;19.90;;;12.63;;
7179;SDS011;3631;42.152;24.756;2024-03-22T05:59:24;14.97;;;10.93;;
7179;SDS011;3631;42.152;24.756;2024-03-22T06:01:50;15.37;;;11.37;;
7179;SDS011;3631;42.152;24.756;2024-03-22T06:04:16;17.03;;;11.23;;
7179;SDS011;3631;42.152;24.756;2024-03-22T06:06:45;15.03;;;11.57;;
7179;SDS011;3631;42.152;24.756;2024-03-22T06:09:10;13.57;;;10.63;;
7179;SDS011;3631;42.152;24.756;2024-03-22T06:11:38;17.27;;;10.98;;
7179;SDS011;3631;42.152;24.756;2024-03-22T06:14:05;12.55;;;11.02;;
7179;SDS011;3631;42.152;24.756;2024-03-22T06:16:31;12.25;;;10.95;;
7179;SDS011;3631;42.152;24.756;2024-03-22T06:18:57;16.00;;;11.43;;
7179;SDS011;3631;42.152;24.756;2024-03-22T06:21:24;16.83;;;12.02;;
7179;SDS011;3631;42.152;24.756;2024-03-22T06:23:52;15.65;;;12.43;;
7179;SDS011;3631;42.152;24.756;2024-03-22T06:26:19;17.35;;;11.88;;
7179;SDS011;3631;42.152;24.756;2024-03-22T06:28:45;15.25;;;11.40;;
7179;SDS011;3631;42.152;24.756;2024-03-22T06:31:12;16.23;;;11.93;;
7179;SDS011;3631;42.152;24.756;2024-03-22T06:33:37;13.18;;;11.00;;
7179;SDS011;3631;42.152;24.756;2024-03-22T06:36:05;16.55;;;11.55;;
7179;SDS011;3631;42.152;24.756;2024-03-22T06:38:31;12.77;;;11.48;;
7179;SDS011;3631;42.152;24.756;2024-03-22T06:40:59;11.80;;;10.60;;
7179;SDS011;3631;42.152;24.756;2024-03-22T06:43:25;13.48;;;11.45;;
7179;SDS011;3631;42.152;24.756;2024-03-22T06:45:52;12.88;;;11.27;;
7179;SDS011;3631;42.152;24.756;2024-03-22T06:48:18;12.13;;;10.20;;
7179;SDS011;3631;42.152;24.756;2024-03-22T06:50:45;15.02;;;11.02;;
7179;SDS011;3631;42.152;24.756;2024-03-22T06:53:11;16.20;;;10.90;;
7179;SDS011;3631;42.152;24.756;2024-03-22T06:55:38;12.05;;;10.25;;
7179;SDS011;3631;42.152;24.756;2024-03-22T06:58:05;14.48;;;10.55;;
7179;SDS011;3631;42.152;24.756;2024-03-22T07:00:32;11.65;;;10.45;;
7179;SDS011;3631;42.152;24.756;2024-03-22T07:02:59;15.20;;;9.40;;
7179;SDS011;3631;42.152;24.756;2024-03-22T07:05:27;15.93;;;10.07;;
7179;SDS011;3631;42.152;24.756;2024-03-22T07:07:53;13.80;;;10.65;;
7179;SDS011;3631;42.152;24.756;2024-03-22T07:10:22;12.65;;;9.63;;
7179;SDS011;3631;42.152;24.756;2024-03-22T07:12:52;16.33;;;10.93;;
7179;SDS011;3631;42.152;24.756;2024-03-22T07:15:22;13.13;;;10.52;;
7179;SDS011;3631;42.152;24.756;2024-03-22T07:17:49;14.50;;;10.63;;
7179;SDS011;3631;42.152;24.756;2024-03-22T07:20:15;12.55;;;11.25;;
7179;SDS011;3631;42.152;24.756;2024-03-22T07:22:41;14.65;;;10.95;;
7179;SDS011;3631;42.152;24.756;2024-03-22T07:25:08;17.55;;;10.48;;
7179;SDS011;3631;42.152;24.756;2024-03-22T07:27:35;11.95;;;10.52;;
7179;SDS011;3631;42.152;24.756;2024-03-22T07:30:02;11.45;;;10.45;;
7179;SDS011;3631;42.152;24.756;2024-03-22T07:32:31;11.02;;;10.13;;
7179;SDS011;3631;42.152;24.756;2024-03-22T07:34:58;10.35;;;9.15;;
7179;SDS011;3631;42.152;24.756;2024-03-22T07:37:25;10.02;;;9.23;;
7179;SDS011;3631;42.152;24.756;2024-03-22T07:39:51;10.10;;;9.02;;
7179;SDS011;3631;42.152;24.756;2024-03-22T07:42:18;10.82;;;9.52;;
7179;SDS011;3631;42.152;24.756;2024-03-22T07:47:17;12.88;;;9.70;;
7179;SDS011;3631;42.152;24.756;2024-03-22T07:49:45;9.57;;;8.88;;
7179;SDS011;3631;42.152;24.756;2024-03-22T07:52:10;11.93;;;9.23;;
7179;SDS011;3631;42.152;24.756;2024-03-22T07:54:37;12.20;;;10.75;;
7179;SDS011;3631;42.152;24.756;2024-03-22T07:57:03;11.77;;;10.23;;
7179;SDS011;3631;42.152;24.756;2024-03-22T07:59:31;12.45;;;10.80;;
7179;SDS011;3631;42.152;24.756;2024-03-22T08:01:57;12.45;;;10.48;;
7179;SDS011;3631;42.152;24.756;2024-03-22T08:04:26;16.15;;;13.30;;
7179;SDS011;3631;42.152;24.756;2024-03-22T08:06:53;13.85;;;11.07;;
7179;SDS011;3631;42.152;24.756;2024-03-22T08:09:20;17.25;;;13.95;;
7179;SDS011;3631;42.152;24.756;2024-03-22T08:11:46;13.38;;;12.18;;
7179;SDS011;3631;42.152;24.756;2024-03-22T08:14:13;43.35;;;32.40;;
7179;SDS011;3631;42.152;24.756;2024-03-22T08:16:39;12.98;;;11.68;;
7179;SDS011;3631;42.152;24.756;2024-03-22T08:19:06;12.75;;;9.25;;
7179;SDS011;3631;42.152;24.756;2024-03-22T08:21:33;16.75;;;9.75;;
7179;SDS011;3631;42.152;24.756;2024-03-22T08:24:00;15.05;;;8.55;;
7179;SDS011;3631;42.152;24.756;2024-03-22T08:26:26;9.85;;;8.88;;
7179;SDS011;3631;42.152;24.756;2024-03-22T08:28:53;11.05;;;9.88;;
7179;SDS011;3631;42.152;24.756;2024-03-22T08:31:19;11.00;;;9.32;;
7179;SDS011;3631;42.152;24.756;2024-03-22T08:33:50;15.77;;;10.80;;
7179;SDS011;3631;42.152;24.756;2024-03-22T08:36:16;13.75;;;10.30;;
7179;SDS011;3631;42.152;24.756;2024-03-22T08:38:44;15.55;;;9.68;;
7179;SDS011;3631;42.152;24.756;2024-03-22T08:41:10;12.13;;;9.45;;
7179;SDS011;3631;42.152;24.756;2024-03-22T08:43:37;14.93;;;9.10;;
7179;SDS011;3631;42.152;24.756;2024-03-22T08:46:03;18.03;;;9.73;;
7179;SDS011;3631;42.152;24.756;2024-03-22T08:48:30;23.97;;;16.37;;
7179;SDS011;3631;42.152;24.756;2024-03-22T08:50:56;19.90;;;13.33;;
7179;SDS011;3631;42.152;24.756;2024-03-22T08:53:23;11.27;;;9.60;;
7179;SDS011;3631;42.152;24.756;2024-03-22T08:55:51;14.03;;;8.97;;
7179;SDS011;3631;42.152;24.756;2024-03-22T08:58:18;11.23;;;8.33;;
7179;SDS011;3631;42.152;24.756;2024-03-22T09:00:44;9.40;;;7.87;;
7179;SDS011;3631;42.152;24.756;2024-03-22T09:03:11;10.67;;;8.70;;
7179;SDS011;3631;42.152;24.756;2024-03-22T09:05:37;8.80;;;7.67;;
7179;SDS011;3631;42.152;24.756;2024-03-22T09:08:04;8.73;;;7.30;;
7179;SDS011;3631;42.152;24.756;2024-03-22T09:10:30;8.67;;;7.77;;
7179;SDS011;3631;42.152;24.756;2024-03-22T09:12:58;8.67;;;7.77;;
7179;SDS011;3631;42.152;24.756;2024-03-22T09:15:24;16.17;;;7.87;;
7179;SDS011;3631;42.152;24.756;2024-03-22T09:17:51;8.87;;;7.30;;
7179;SDS011;3631;42.152;24.756;2024-03-22T09:20:17;8.10;;;6.47;;
7179;SDS011;3631;42.152;24.756;2024-03-22T09:22:44;5.03;;;4.70;;
7179;SDS011;3631;42.152;24.756;2024-03-22T09:25:11;5.27;;;4.87;;
7179;SDS011;3631;42.152;24.756;2024-03-22T09:27:37;5.53;;;5.10;;
7179;SDS011;3631;42.152;24.756;2024-03-22T09:30:06;6.10;;;5.53;;
7179;SDS011;3631;42.152;24.756;2024-03-22T09:32:34;8.47;;;7.57;;
7179;SDS011;3631;42.152;24.756;2024-03-22T09:35:00;7.47;;;6.00;;
7179;SDS011;3631;42.152;24.756;2024-03-22T09:37:26;7.07;;;6.37;;
7179;SDS011;3631;42.152;24.756;2024-03-22T09:39:53;6.40;;;5.87;;
7179;SDS011;3631;42.152;24.756;2024-03-22T09:42:19;7.43;;;6.73;;
7179;SDS011;3631;42.152;24.756;2024-03-22T09:44:50;9.77;;;5.10;;
7179;SDS011;3631;42.152;24.756;2024-03-22T09:47:18;5.40;;;5.00;;
7179;SDS011;3631;42.152;24.756;2024-03-22T09:49:46;5.70;;;5.03;;
7179;SDS011;3631;42.152;24.756;2024-03-22T09:52:14;7.33;;;4.87;;
7179;SDS011;3631;42.152;24.756;2024-03-22T09:54:42;4.87;;;4.47;;
7179;SDS011;3631;42.152;24.756;2024-03-22T09:57:09;4.73;;;4.33;;
7179;SDS011;3631;42.152;24.756;2024-03-22T09:59:40;4.57;;;4.17;;
7179;SDS011;3631;42.152;24.756;2024-03-22T10:02:07;4.27;;;3.87;;
7179;SDS011;3631;42.152;24.756;2024-03-22T10:04:39;5.03;;;4.33;;
7179;SDS011;3631;42.152;24.756;2024-03-22T10:07:06;5.77;;;5.17;;
7179;SDS011;3631;42.152;24.756;2024-03-22T10:09:33;6.50;;;4.90;;
7179;SDS011;3631;42.152;24.756;2024-03-22T10:12:00;6.07;;;5.57;;
7179;SDS011;3631;42.152;24.756;2024-03-22T10:14:28;5.03;;;4.57;;
7179;SDS011;3631;42.152;24.756;2024-03-22T10:16:54;5.07;;;4.30;;
7179;SDS011;3631;42.152;24.756;2024-03-22T10:19:22;8.27;;;4.80;;
7179;SDS011;3631;42.152;24.756;2024-03-22T10:22:00;5.97;;;5.30;;
7179;SDS011;3631;42.152;24.756;2024-03-22T10:24:27;5.73;;;5.00;;
7179;SDS011;3631;42.152;24.756;2024-03-22T10:26:53;7.30;;;5.57;;
7179;SDS011;3631;42.152;24.756;2024-03-22T10:29:20;6.87;;;5.03;;
7179;SDS011;3631;42.152;24.756;2024-03-22T10:31:47;8.17;;;4.67;;
7179;SDS011;3631;42.152;24.756;2024-03-22T10:34:14;8.50;;;5.17;;
7179;SDS011;3631;42.152;24.756;2024-03-22T10:36:42;7.20;;;5.03;;
7179;SDS011;3631;42.152;24.756;2024-03-22T10:39:12;6.73;;;5.37;;
7179;SDS011;3631;42.152;24.756;2024-03-22T10:41:42;5.40;;;4.83;;
7179;SDS011;3631;42.152;24.756;2024-03-22T10:44:09;5.63;;;5.00;;
7179;SDS011;3631;42.152;24.756;2024-03-22T10:46:35;5.47;;;5.00;;
7179;SDS011;3631;42.152;24.756;2024-03-22T10:49:02;6.80;;;5.60;;
7179;SDS011;3631;42.152;24.756;2024-03-22T10:51:29;26.23;;;5.70;;
7179;SDS011;3631;42.152;24.756;2024-03-22T10:53:59;6.37;;;4.90;;
7179;SDS011;3631;42.152;24.756;2024-03-22T10:56:29;9.30;;;5.60;;
7179;SDS011;3631;42.152;24.756;2024-03-22T10:58:57;15.43;;;5.57;;
7179;SDS011;3631;42.152;24.756;2024-03-22T11:01:29;6.37;;;4.93;;
7179;SDS011;3631;42.152;24.756;2024-03-22T11:04:04;5.80;;;4.53;;
7179;SDS011;3631;42.152;24.756;2024-03-22T11:06:31;6.00;;;4.40;;
7179;SDS011;3631;42.152;24.756;2024-03-22T11:08:59;4.93;;;4.53;;
7179;SDS011;3631;42.152;24.756;2024-03-22T11:11:25;5.20;;;4.70;;
7179;SDS011;3631;42.152;24.756;2024-03-22T11:13:56;4.37;;;4.07;;
7179;SDS011;3631;42.152;24.756;2024-03-22T11:16:22;4.57;;;4.17;;
7179;SDS011;3631;42.152;24.756;2024-03-22T11:18:49;7.37;;;4.70;;
7179;SDS011;3631;42.152;24.756;2024-03-22T11:21:15;5.30;;;3.13;;
7179;SDS011;3631;42.152;24.756;2024-03-22T11:23:44;3.13;;;2.90;;
7179;SDS011;3631;42.152;24.756;2024-03-22T11:26:11;4.20;;;3.87;;
7179;SDS011;3631;42.152;24.756;2024-03-22T11:28:37;5.77;;;3.43;;
7179;SDS011;3631;42.152;24.756;2024-03-22T11:31:05;4.63;;;3.70;;
7179;SDS011;3631;42.152;24.756;2024-03-22T11:33:32;4.10;;;3.80;;
7179;SDS011;3631;42.152;24.756;2024-03-22T11:35:58;3.67;;;3.37;;
7179;SDS011;3631;42.152;24.756;2024-03-22T11:38:25;3.80;;;3.50;;
7179;SDS011;3631;42.152;24.756;2024-03-22T11:40:52;5.30;;;3.23;;
7179;SDS011;3631;42.152;24.756;2024-03-22T11:43:20;5.27;;;3.23;;
7179;SDS011;3631;42.152;24.756;2024-03-22T11:45:46;3.27;;;3.07;;
7179;SDS011;3631;42.152;24.756;2024-03-22T11:48:15;3.20;;;2.73;;
7179;SDS011;3631;42.152;24.756;2024-03-22T11:50:42;4.80;;;3.70;;
7179;SDS011;3631;42.152;24.756;2024-03-22T11:53:09;3.97;;;3.50;;
7179;SDS011;3631;42.152;24.756;2024-03-22T11:55:35;3.37;;;3.10;;
7179;SDS011;3631;42.152;24.756;2024-03-22T11:58:03;4.43;;;3.00;;
7179;SDS011;3631;42.152;24.756;2024-03-22T12:00:29;3.23;;;3.03;;
7179;SDS011;3631;42.152;24.756;2024-03-22T12:02:56;4.67;;;2.63;;
7179;SDS011;3631;42.152;24.756;2024-03-22T12:05:24;9.50;;;3.20;;
7179;SDS011;3631;42.152;24.756;2024-03-22T12:07:51;4.53;;;2.87;;
7179;SDS011;3631;42.152;24.756;2024-03-22T12:10:17;6.00;;;3.43;;
7179;SDS011;3631;42.152;24.756;2024-03-22T12:12:44;6.23;;;3.03;;
7179;SDS011;3631;42.152;24.756;2024-03-22T12:15:10;2.87;;;2.67;;
7179;SDS011;3631;42.152;24.756;2024-03-22T12:17:37;3.30;;;3.00;;
7179;SDS011;3631;42.152;24.756;2024-03-22T12:20:05;3.07;;;2.63;;
7179;SDS011;3631;42.152;24.756;2024-03-22T12:22:35;3.57;;;2.57;;
7179;SDS011;3631;42.152;24.756;2024-03-22T12:25:01;4.07;;;2.53;;
7179;SDS011;3631;42.152;24.756;2024-03-22T12:27:29;3.07;;;2.73;;
7179;SDS011;3631;42.152;24.756;2024-03-22T12:29:55;2.90;;;2.70;;
7179;SDS011;3631;42.152;24.756;2024-03-22T12:32:22;3.27;;;3.00;;
7179;SDS011;3631;42.152;24.756;2024-03-22T12:34:48;3.10;;;2.90;;
7179;SDS011;3631;42.152;24.756;2024-03-22T12:37:15;4.17;;;3.67;;
7179;SDS011;3631;42.152;24.756;2024-03-22T12:39:42;2.70;;;2.50;;
7179;SDS011;3631;42.152;24.756;2024-03-22T12:42:09;3.30;;;2.30;;
7179;SDS011;3631;42.152;24.756;2024-03-22T12:44:35;3.60;;;2.57;;
7179;SDS011;3631;42.152;24.756;2024-03-22T12:47:02;2.53;;;2.33;;
7179;SDS011;3631;42.152;24.756;2024-03-22T12:49:28;3.20;;;2.70;;
7179;SDS011;3631;42.152;24.756;2024-03-22T12:51:55;4.03;;;2.63;;
7179;SDS011;3631;42.152;24.756;2024-03-22T12:54:22;3.70;;;2.47;;
7179;SDS011;3631;42.152;24.756;2024-03-22T12:56:52;5.13;;;2.57;;
7179;SDS011;3631;42.152;24.756;2024-03-22T12:59:17;3.20;;;2.90;;
7179;SDS011;3631;42.152;24.756;2024-03-22T13:01:45;2.20;;;2.07;;
7179;SDS011;3631;42.152;24.756;2024-03-22T13:04:11;2.40;;;2.20;;
7179;SDS011;3631;42.152;24.756;2024-03-22T13:06:38;5.20;;;2.70;;
7179;SDS011;3631;42.152;24.756;2024-03-22T13:09:03;2.30;;;2.20;;
7179;SDS011;3631;42.152;24.756;2024-03-22T13:11:31;4.27;;;2.57;;
7179;SDS011;3631;42.152;24.756;2024-03-22T13:13:58;2.80;;;2.60;;
7179;SDS011;3631;42.152;24.756;2024-03-22T13:16:26;3.07;;;2.83;;
7179;SDS011;3631;42.152;24.756;2024-03-22T13:18:52;3.90;;;2.40;;
7179;SDS011;3631;42.152;24.756;2024-03-22T13:21:19;2.97;;;2.67;;
7179;SDS011;3631;42.152;24.756;2024-03-22T13:23:45;2.83;;;2.63;;
7179;SDS011;3631;42.152;24.756;2024-03-22T13:26:12;3.13;;;2.93;;
7179;SDS011;3631;42.152;24.756;2024-03-22T13:28:38;4.27;;;2.97;;
7179;SDS011;3631;42.152;24.756;2024-03-22T13:31:08;2.60;;;2.40;;
7179;SDS011;3631;42.152;24.756;2024-03-22T13:33:34;2.97;;;2.77;;
7179;SDS011;3631;42.152;24.756;2024-03-22T13:36:01;3.40;;;3.10;;
7179;SDS011;3631;42.152;24.756;2024-03-22T13:38:28;3.77;;;2.43;;
7179;SDS011;3631;42.152;24.756;2024-03-22T13:40:56;2.33;;;2.17;;
7179;SDS011;3631;42.152;24.756;2024-03-22T13:43:22;2.83;;;2.63;;
7179;SDS011;3631;42.152;24.756;2024-03-22T13:45:50;2.93;;;2.73;;
7179;SDS011;3631;42.152;24.756;2024-03-22T13:48:20;2.83;;;2.63;;
7179;SDS011;3631;42.152;24.756;2024-03-22T13:50:49;4.30;;;2.83;;
7179;SDS011;3631;42.152;24.756;2024-03-22T13:53:15;7.57;;;3.83;;
7179;SDS011;3631;42.152;24.756;2024-03-22T13:55:42;3.97;;;3.67;;
7179;SDS011;3631;42.152;24.756;2024-03-22T13:58:08;4.43;;;2.90;;
7179;SDS011;3631;42.152;24.756;2024-03-22T14:00:35;2.80;;;2.60;;
7179;SDS011;3631;42.152;24.756;2024-03-22T14:03:01;2.63;;;2.47;;
7179;SDS011;3631;42.152;24.756;2024-03-22T14:05:29;2.80;;;2.60;;
7179;SDS011;3631;42.152;24.756;2024-03-22T14:07:56;3.20;;;3.00;;
7179;SDS011;3631;42.152;24.756;2024-03-22T14:10:24;3.50;;;2.57;;
7179;SDS011;3631;42.152;24.756;2024-03-22T14:12:51;5.00;;;2.10;;
7179;SDS011;3631;42.152;24.756;2024-03-22T14:15:19;2.60;;;2.40;;
7179;SDS011;3631;42.152;24.756;2024-03-22T14:17:44;2.80;;;2.60;;
7179;SDS011;3631;42.152;24.756;2024-03-22T14:20:11;4.23;;;2.73;;
7179;SDS011;3631;42.152;24.756;2024-03-22T14:22:39;2.97;;;2.47;;
7179;SDS011;3631;42.152;24.756;2024-03-22T14:25:06;2.53;;;2.33;;
7179;SDS011;3631;42.152;24.756;2024-03-22T14:27:33;3.73;;;2.60;;
7179;SDS011;3631;42.152;24.756;2024-03-22T14:30:00;3.00;;;2.77;;
7179;SDS011;3631;42.152;24.756;2024-03-22T14:32:30;3.13;;;2.47;;
7179;SDS011;3631;42.152;24.756;2024-03-22T14:34:57;6.00;;;2.50;;
7179;SDS011;3631;42.152;24.756;2024-03-22T14:37:23;3.23;;;2.50;;
7179;SDS011;3631;42.152;24.756;2024-03-22T14:39:51;4.37;;;2.63;;
7179;SDS011;3631;42.152;24.756;2024-03-22T14:42:17;3.07;;;2.77;;
7179;SDS011;3631;42.152;24.756;2024-03-22T14:44:44;2.97;;;2.67;;
7179;SDS011;3631;42.152;24.756;2024-03-22T14:47:10;2.67;;;2.47;;